Time;durP1;ratioP1;P1;durP2;ratioP2;P2;SDS_P1;SDS_P2;PMS_P1;PMS_P2;Temp;Humidity;BMP_temperature;BMP_pressure;BME280_temperature;BME280_humidity;BME280_pressure;Samples;Min_cycle;Max_cycle;Signal;HPM_P1;HPM_P2
2022/04/09 00:00:07;;;;;;;11.32;3.83;;;;;;;2.59;97.72;100124.19;1047081;28;20310;-75
2022/04/09 00:00:39;;;;;;;11.13;3.00;;;;;;;2.63;97.70;100129.91;1047728;28;20377;-75
2022/04/09 00:01:11;;;;;;;24.80;4.10;;;;;;;2.61;98.01;100122.19;1046106;28;20788;-74
2022/04/09 00:01:42;;;;;;;26.98;5.70;;;;;;;2.57;98.17;100134.09;1043908;28;20310;-74
2022/04/09 00:02:14;;;;;;;18.48;3.95;;;;;;;2.53;97.85;100132.81;1044895;28;20823;-75
2022/04/09 00:02:46;;;;;;;19.15;4.47;;;;;;;2.51;98.09;100136.63;1044106;28;20898;-75
2022/04/09 00:03:18;;;;;;;10.77;3.55;;;;;;;2.53;98.30;100138.09;1044433;28;20657;-75
2022/04/09 00:03:49;;;;;;;13.10;3.67;;;;;;;2.56;97.73;100140.34;1047898;28;20364;-75
2022/04/09 00:04:21;;;;;;;13.57;4.25;;;;;;;2.61;97.89;100143.25;1044709;28;20345;-75
2022/04/09 00:04:52;;;;;;;20.15;5.90;;;;;;;2.66;97.79;100146.13;1043445;28;20299;-75
2022/04/09 00:05:25;;;;;;;15.63;4.25;;;;;;;2.62;97.77;100139.59;1043866;28;20303;-75
2022/04/09 00:05:56;;;;;;;12.57;3.88;;;;;;;2.63;98.02;100141.25;1043957;28;20350;-75
2022/04/09 00:06:28;;;;;;;13.70;4.10;;;;;;;2.64;97.84;100140.25;1044205;28;20684;-75
2022/04/09 00:06:59;;;;;;;18.17;3.95;;;;;;;2.64;97.85;100136.78;1044223;28;20386;-74
2022/04/09 00:07:31;;;;;;;19.02;4.38;;;;;;;2.65;97.67;100141.06;1043612;28;20413;-75
2022/04/09 00:08:03;;;;;;;14.45;3.78;;;;;;;2.67;97.95;100141.69;1039983;28;20291;-74
2022/04/09 00:08:34;;;;;;;22.27;4.32;;;;;;;2.64;97.85;100142.88;1039777;28;20319;-75
2022/04/09 00:09:06;;;;;;;12.85;4.78;;;;;;;2.67;97.87;100139.88;1040185;28;20801;-75
2022/04/09 00:09:37;;;;;;;20.67;5.07;;;;;;;2.70;97.43;100146.56;1044050;28;20298;-75
2022/04/09 00:10:11;;;;;;;20.92;4.57;;;;;;;2.71;97.53;100149.03;1045214;28;20306;-74
2022/04/09 00:10:43;;;;;;;21.35;4.13;;;;;;;2.74;97.66;100143.44;1047985;28;20306;-75
2022/04/09 00:11:14;;;;;;;17.40;4.22;;;;;;;2.78;97.54;100144.69;1038614;28;20797;-75
2022/04/09 00:11:46;;;;;;;18.13;4.97;;;;;;;2.81;97.95;100147.94;1035765;28;20292;-74
2022/04/09 00:12:18;;;;;;;20.58;3.35;;;;;;;2.85;97.77;100149.22;1035692;28;20297;-75
2022/04/09 00:12:49;;;;;;;17.80;4.13;;;;;;;2.85;97.89;100160.56;1038798;28;20289;-75
2022/04/09 00:13:21;;;;;;;15.27;4.78;;;;;;;2.91;97.59;100159.00;1041748;28;20292;-75
2022/04/09 00:13:53;;;;;;;18.55;4.57;;;;;;;2.93;97.67;100162.25;1043628;28;20306;-75
2022/04/09 00:14:24;;;;;;;18.25;4.20;;;;;;;2.91;97.60;100166.88;1035669;28;20352;-75
2022/04/09 00:14:56;;;;;;;16.92;4.47;;;;;;;2.97;97.77;100163.53;1036420;28;20840;-75
2022/04/09 00:15:28;;;;;;;17.10;4.47;;;;;;;2.98;97.50;100158.06;1039401;28;20342;-76
2022/04/09 00:15:59;;;;;;;12.43;4.25;;;;;;;3.01;97.31;100168.25;1040769;28;20323;-75
2022/04/09 00:16:31;;;;;;;15.85;3.85;;;;;;;3.06;97.20;100162.44;1043013;28;20793;-75
2022/04/09 00:17:03;;;;;;;16.02;4.53;;;;;;;3.08;97.22;100173.59;1044444;28;20433;-74
2022/04/09 00:17:42;;;;;;;17.98;3.35;;;;;;;3.06;97.44;100167.69;1047463;28;20303;-75
2022/04/09 00:18:15;;;;;;;16.75;4.28;;;;;;;3.10;96.92;100168.97;1048110;28;20331;-75
2022/04/09 00:18:47;;;;;;;20.15;4.13;;;;;;;3.12;96.83;100171.41;1047448;28;20776;-75
2022/04/09 00:19:18;;;;;;;16.83;3.78;;;;;;;3.13;97.05;100168.59;1043645;28;20295;-75
2022/04/09 00:19:51;;;;;;;17.45;3.67;;;;;;;3.16;96.93;100162.13;1039255;28;20307;-74
2022/04/09 00:20:23;;;;;;;13.68;3.80;;;;;;;3.21;96.65;100172.91;1040279;28;20303;-75
2022/04/09 00:20:55;;;;;;;8.60;2.72;;;;;;;3.19;96.99;100167.03;1039987;28;20303;-75
2022/04/09 00:21:29;;;;;;;13.77;3.65;;;;;;;3.19;96.94;100173.09;1035393;28;20446;-75
2022/04/09 00:22:01;;;;;;;17.50;3.88;;;;;;;3.16;96.62;100176.13;1035479;28;20293;-74
2022/04/09 00:22:33;;;;;;;18.90;4.05;;;;;;;3.18;96.84;100166.22;1040019;28;20344;-75
2022/04/09 00:23:05;;;;;;;15.43;3.70;;;;;;;3.17;96.96;100169.84;1048144;28;20307;-75
2022/04/09 00:23:36;;;;;;;16.30;3.65;;;;;;;3.23;96.42;100173.56;1048110;28;20660;-75
2022/04/09 00:24:08;;;;;;;15.43;4.18;;;;;;;3.28;96.46;100165.91;1048280;28;20653;-75
2022/04/09 00:24:40;;;;;;;15.52;3.50;;;;;;;3.22;96.54;100172.72;1043867;28;20307;-75
2022/04/09 00:25:13;;;;;;;14.52;3.42;;;;;;;3.24;96.51;100167.28;1039728;28;20315;-75
2022/04/09 00:25:45;;;;;;;17.63;3.80;;;;;;;3.21;96.28;100170.28;1039998;28;20300;-75
2022/04/09 00:26:17;;;;;;;15.70;2.92;;;;;;;3.19;96.24;100165.22;1039893;28;20299;-75
2022/04/09 00:26:49;;;;;;;8.95;2.38;;;;;;;3.19;96.44;100167.84;1040400;28;20296;-75
2022/04/09 00:27:20;;;;;;;20.42;3.38;;;;;;;3.21;95.91;100171.09;1038822;28;20317;-74
2022/04/09 00:27:53;;;;;;;14.23;3.63;;;;;;;3.17;96.09;100175.09;1037939;28;20304;-75
2022/04/09 00:28:24;;;;;;;23.30;4.20;;;;;;;3.18;95.82;100171.47;1035602;28;20310;-74
2022/04/09 00:28:56;;;;;;;20.15;3.88;;;;;;;3.14;95.81;100172.84;1032725;28;20304;-74
2022/04/09 00:29:27;;;;;;;18.38;3.25;;;;;;;3.12;95.74;100161.69;1040123;28;20299;-75
2022/04/09 00:29:59;;;;;;;13.50;3.78;;;;;;;3.09;95.99;100175.22;1043314;28;20789;-74
2022/04/09 00:30:31;;;;;;;24.67;3.88;;;;;;;3.07;95.69;100174.59;1036142;28;20304;-74
2022/04/09 00:31:03;;;;;;;18.10;4.35;;;;;;;3.06;95.69;100172.97;1039847;28;20296;-75
2022/04/09 00:31:34;;;;;;;12.45;3.03;;;;;;;2.98;95.54;100175.66;1034080;28;20300;-75
2022/04/09 00:32:07;;;;;;;19.10;3.92;;;;;;;3.01;95.47;100170.03;1035873;28;20313;-75
2022/04/09 00:32:38;;;;;;;16.10;4.55;;;;;;;2.99;95.44;100182.56;1040460;28;20292;-74
2022/04/09 00:33:10;;;;;;;16.65;3.40;;;;;;;2.98;95.85;100180.94;1043720;28;20296;-75
2022/04/09 00:33:42;;;;;;;16.15;3.63;;;;;;;2.88;96.07;100180.41;1043934;28;20303;-75
2022/04/09 00:34:14;;;;;;;12.40;3.20;;;;;;;2.84;95.50;100179.97;1039922;28;20315;-75
2022/04/09 00:34:46;;;;;;;16.15;3.60;;;;;;;2.90;95.78;100188.94;1039617;28;20300;-75
2022/04/09 00:35:18;;;;;;;10.38;3.40;;;;;;;2.85;95.47;100180.78;1039546;28;20674;-74
2022/04/09 00:35:49;;;;;;;16.98;3.45;;;;;;;2.87;95.76;100184.03;1036968;28;20297;-75
2022/04/09 00:36:22;;;;;;;15.38;3.13;;;;;;;2.82;95.42;100186.41;1043783;28;20792;-74
2022/04/09 00:36:54;;;;;;;14.35;3.92;;;;;;;2.82;95.82;100183.78;1044037;28;20308;-75
2022/04/09 00:37:25;;;;;;;17.10;4.18;;;;;;;2.78;95.35;100181.50;1048150;28;20776;-74
2022/04/09 00:37:57;;;;;;;11.57;2.80;;;;;;;2.85;94.96;100183.41;1048082;28;20788;-75
2022/04/09 00:38:29;;;;;;;13.00;2.72;;;;;;;2.76;95.13;100174.81;1048018;28;20305;-76
2022/04/09 00:39:01;;;;;;;10.18;3.45;;;;;;;2.75;95.27;100183.69;1048148;28;20392;-76
2022/04/09 00:39:32;;;;;;;12.57;3.40;;;;;;;2.75;95.13;100181.88;1047781;28;20728;-74
2022/04/09 00:40:04;;;;;;;16.60;3.40;;;;;;;2.77;95.17;100190.41;1047754;28;21022;-74
2022/04/09 00:40:36;;;;;;;8.15;2.50;;;;;;;2.78;95.27;100184.13;1048155;28;20291;-75
2022/04/09 00:41:11;;;;;;;12.20;2.97;;;;;;;2.85;95.33;100183.41;1048297;28;20314;-75
2022/04/09 00:41:49;;;;;;;16.38;3.42;;;;;;;2.81;95.22;100184.78;1047153;28;20286;-76
2022/04/09 00:42:22;;;;;;;12.32;2.80;;;;;;;2.84;95.28;100185.22;1043692;28;20303;-75
2022/04/09 00:42:54;;;;;;;16.23;2.92;;;;;;;2.87;95.07;100184.03;1038985;28;20303;-74
2022/04/09 00:43:25;;;;;;;13.68;3.70;;;;;;;2.84;95.11;100192.28;1035803;28;20671;-74
2022/04/09 00:43:57;;;;;;;8.57;2.22;;;;;;;2.87;95.57;100184.03;1035985;28;20312;-76
2022/04/09 00:44:28;;;;;;;9.45;2.88;;;;;;;2.86;95.17;100192.94;1039922;28;20627;-74
2022/04/09 00:45:00;;;;;;;7.90;2.25;;;;;;;2.88;95.13;100190.94;1039679;28;20304;-75
2022/04/09 00:45:32;;;;;;;10.50;3.42;;;;;;;2.93;95.46;100188.56;1039721;28;20295;-75
2022/04/09 00:46:03;;;;;;;18.58;3.55;;;;;;;2.94;95.51;100195.44;1039518;28;20310;-75
2022/04/09 00:46:35;;;;;;;18.30;2.97;;;;;;;2.94;95.78;100200.72;1040191;28;20300;-74
2022/04/09 00:47:07;;;;;;;8.90;2.20;;;;;;;2.95;95.45;100197.91;1044945;28;20373;-75
2022/04/09 00:47:39;;;;;;;13.48;3.70;;;;;;;2.96;95.53;100209.25;1047788;28;20309;-75
2022/04/09 00:48:11;;;;;;;11.18;3.13;;;;;;;3.00;95.87;100206.06;1048133;28;20291;-74
2022/04/09 00:48:43;;;;;;;13.55;3.17;;;;;;;3.00;95.60;100205.25;1047791;28;20298;-74
2022/04/09 00:49:16;;;;;;;11.90;3.08;;;;;;;3.02;95.64;100203.28;1043626;28;20303;-75
2022/04/09 00:49:47;;;;;;;10.30;2.72;;;;;;;3.02;95.68;100201.47;1044411;28;20657;-76
2022/04/09 00:50:19;;;;;;;9.73;3.08;;;;;;;3.05;95.85;100208.16;1047942;28;20719;-75
2022/04/09 00:50:52;;;;;;;10.43;3.00;;;;;;;3.04;95.46;100214.44;1047905;28;20290;-75
2022/04/09 00:51:24;;;;;;;7.95;2.97;;;;;;;3.08;95.81;100210.44;1047937;28;20623;-74
2022/04/09 00:51:55;;;;;;;13.95;3.20;;;;;;;3.06;95.58;100215.06;1046684;28;20290;-75
2022/04/09 00:52:30;;;;;;;9.77;2.85;;;;;;;3.11;96.06;100217.94;1039492;28;20339;-74
2022/04/09 00:53:03;;;;;;;20.10;2.78;;;;;;;3.13;95.93;100215.94;1035029;28;20672;-80
2022/04/09 00:53:35;;;;;;;10.38;3.63;;;;;;;3.15;95.87;100221.84;1031480;28;20641;-80
2022/04/09 00:54:10;;;;;;;13.40;2.85;;;;;;;3.16;95.76;100212.94;1032670;28;20652;-80
2022/04/09 00:54:46;;;;;;;8.13;2.47;;;;;;;3.18;95.83;100218.84;1036705;28;20305;-80
2022/04/09 00:56:12;;;;;;;16.15;3.38;;;;;;;3.15;96.07;100216.59;1039733;28;20300;-81
2022/04/09 00:56:13;;;;;;;13.57;2.65;;;;;;;3.12;96.00;100213.50;1039378;28;20310;-80
2022/04/09 00:56:46;;;;;;;20.95;3.08;;;;;;;3.02;95.82;100209.34;1035762;28;20797;-81
2022/04/09 00:57:19;;;;;;;11.52;2.60;;;;;;;3.09;95.80;100214.69;1038793;28;20315;-80
2022/04/09 00:57:51;;;;;;;5.55;2.50;;;;;;;3.00;95.83;100215.75;1036452;28;20305;-80
2022/04/09 00:58:23;;;;;;;10.32;3.13;;;;;;;2.95;96.05;100216.31;1036550;28;20375;-80
2022/04/09 00:58:55;;;;;;;11.18;3.20;;;;;;;2.90;96.19;100215.22;1035678;28;20308;-81
2022/04/09 00:59:29;;;;;;;16.80;3.28;;;;;;;2.88;95.81;100207.53;1036755;28;20300;-81
2022/04/09 01:00:09;;;;;;;14.40;3.60;;;;;;;2.81;96.12;100206.63;1043648;28;20310;-80
2022/04/09 01:00:41;;;;;;;16.15;4.65;;;;;;;2.78;95.98;100213.06;1045465;28;20322;-80
2022/04/09 01:01:14;;;;;;;13.43;2.97;;;;;;;2.78;95.72;100223.59;1045577;28;20291;-80
2022/04/09 01:01:47;;;;;;;10.98;3.67;;;;;;;2.75;96.17;100218.69;1038937;28;20300;-81
2022/04/09 01:02:20;;;;;;;12.85;3.25;;;;;;;2.76;96.35;100214.25;1032271;28;20305;-80
2022/04/09 01:02:51;;;;;;;15.82;3.15;;;;;;;2.76;96.38;100217.69;1032391;28;20305;-80
2022/04/09 01:03:23;;;;;;;15.85;3.13;;;;;;;2.71;96.53;100220.03;1035755;28;20344;-80
2022/04/09 01:03:55;;;;;;;17.50;4.40;;;;;;;2.70;96.11;100210.50;1044336;28;20334;-80
2022/04/09 01:04:27;;;;;;;18.45;2.95;;;;;;;2.70;96.38;100212.31;1043740;28;20385;-80
2022/04/09 01:04:59;;;;;;;15.60;3.65;;;;;;;2.67;96.55;100224.00;1035832;28;20340;-80
2022/04/09 01:05:31;;;;;;;12.80;3.67;;;;;;;2.67;96.57;100213.50;1034843;28;20923;-80
2022/04/09 01:06:05;;;;;;;14.27;3.03;;;;;;;2.65;96.67;100226.00;1035400;28;20292;-80
2022/04/09 01:06:38;;;;;;;18.02;4.00;;;;;;;2.68;96.63;100223.00;1036138;28;20799;-80
2022/04/09 01:07:10;;;;;;;16.90;2.80;;;;;;;2.65;96.81;100228.63;1035058;28;20324;-80
2022/04/09 01:07:42;;;;;;;14.18;3.35;;;;;;;2.64;96.55;100227.00;1035668;28;20293;-80
2022/04/09 01:08:13;;;;;;;11.52;2.78;;;;;;;2.65;96.69;100233.06;1035110;28;20308;-80
2022/04/09 01:08:45;;;;;;;16.63;3.83;;;;;;;2.65;96.75;100230.44;1031681;28;20636;-80
2022/04/09 01:09:19;;;;;;;16.90;2.70;;;;;;;2.60;96.56;100227.53;1032142;28;20305;-80
2022/04/09 01:09:51;;;;;;;13.35;4.13;;;;;;;2.59;96.44;100237.25;1034391;28;20305;-80
2022/04/09 01:10:22;;;;;;;12.75;2.72;;;;;;;2.57;96.83;100233.97;1040341;28;20296;-80
2022/04/09 01:10:54;;;;;;;12.98;3.38;;;;;;;2.60;97.04;100238.88;1043978;28;20283;-80
2022/04/09 01:11:27;;;;;;;12.10;3.40;;;;;;;2.56;96.80;100231.53;1043557;28;20875;-80
2022/04/09 01:12:00;;;;;;;19.52;3.92;;;;;;;2.56;96.98;100239.41;1043058;28;20302;-80
2022/04/09 01:12:34;;;;;;;12.73;4.07;;;;;;;2.56;96.98;100242.88;1032385;28;20301;-80
2022/04/09 01:13:06;;;;;;;12.40;2.65;;;;;;;2.45;97.36;100238.84;1036038;28;20893;-81
2022/04/09 01:13:39;;;;;;;12.82;3.05;;;;;;;2.45;97.12;100248.53;1031513;28;20356;-80
2022/04/09 01:14:12;;;;;;;11.00;2.65;;;;;;;2.45;97.16;100243.28;1031179;28;20371;-80
2022/04/09 01:14:43;;;;;;;16.05;3.47;;;;;;;2.40;97.22;100245.63;1038485;28;20844;-80
2022/04/09 01:15:15;;;;;;;14.38;3.55;;;;;;;2.38;97.19;100243.19;1037226;28;20297;-81
2022/04/09 01:15:47;;;;;;;14.15;3.50;;;;;;;2.41;97.11;100252.53;1032785;28;20316;-80
2022/04/09 01:16:18;;;;;;;18.95;3.63;;;;;;;2.45;97.46;100248.53;1034658;28;20316;-81
2022/04/09 01:16:51;;;;;;;16.55;3.40;;;;;;;2.45;97.25;100256.41;1036053;28;20399;-80
2022/04/09 01:17:22;;;;;;;8.50;2.40;;;;;;;2.43;97.28;100245.28;1033471;28;20363;-80
2022/04/09 01:17:54;;;;;;;9.60;3.45;;;;;;;2.43;97.13;100245.28;1040463;28;20299;-81
2022/04/09 01:18:26;;;;;;;9.63;2.80;;;;;;;2.42;97.38;100251.53;1035290;28;20427;-80
2022/04/09 01:19:03;;;;;;;9.70;2.53;;;;;;;2.45;97.26;100253.78;1037835;28;20438;-80
2022/04/09 01:19:38;;;;;;;14.27;2.47;;;;;;;2.47;97.45;100249.22;1039609;28;20344;-80
2022/04/09 01:20:21;;;;;;;7.78;2.67;;;;;;;2.49;97.08;100249.84;1040896;28;20296;-80
2022/04/09 01:20:57;;;;;;;9.63;2.70;;;;;;;2.49;97.17;100249.84;1036609;28;20383;-80
2022/04/09 01:21:29;;;;;;;19.55;3.35;;;;;;;2.50;97.30;100250.66;1036252;28;20303;-80
2022/04/09 01:22:04;;;;;;;13.27;2.80;;;;;;;2.48;97.42;100249.03;1030945;28;20359;-80
2022/04/09 01:22:36;;;;;;;11.20;3.20;;;;;;;2.42;97.31;100251.53;1031793;28;20306;-80
2022/04/09 01:23:08;;;;;;;8.15;2.30;;;;;;;2.40;97.48;100251.69;1030017;28;20902;-81
2022/04/09 01:23:40;;;;;;;13.68;2.85;;;;;;;2.44;96.91;100255.59;1032641;28;20304;-80
2022/04/09 01:24:12;;;;;;;7.50;2.45;;;;;;;2.44;97.43;100257.41;1036056;28;20818;-80
2022/04/09 01:24:51;;;;;;;7.00;2.50;;;;;;;2.43;96.66;100267.13;1036815;28;20340;-80
2022/04/09 01:25:23;;;;;;;9.95;2.38;;;;;;;2.44;96.95;100252.97;1039447;28;20307;-80
2022/04/09 01:26:00;;;;;;;11.85;2.50;;;;;;;2.45;97.05;100259.88;1033324;28;20538;-80
2022/04/09 01:26:32;;;;;;;9.10;2.40;;;;;;;2.45;96.81;100265.13;1030799;28;20813;-81
2022/04/09 01:27:05;;;;;;;9.88;2.25;;;;;;;2.45;96.81;100253.78;1035084;28;20837;-80
2022/04/09 01:27:43;;;;;;;13.88;2.53;;;;;;;2.42;97.00;100259.41;1037226;28;20716;-80
2022/04/09 01:28:16;;;;;;;11.82;2.60;;;;;;;2.42;96.95;100262.03;1038940;28;20414;-80
2022/04/09 01:28:49;;;;;;;8.75;2.70;;;;;;;2.40;97.01;100258.78;1044590;28;20295;-80
2022/04/09 01:29:22;;;;;;;8.55;2.10;;;;;;;2.36;96.85;100260.94;1037817;28;20307;-80
2022/04/09 01:29:54;;;;;;;11.32;3.30;;;;;;;2.35;96.91;100261.94;1036040;28;20301;-80
2022/04/09 01:30:25;;;;;;;13.38;3.63;;;;;;;2.36;96.97;100260.13;1036122;28;20840;-80
2022/04/09 01:30:57;;;;;;;12.35;2.88;;;;;;;2.36;96.85;100265.38;1040182;28;20288;-80
2022/04/09 01:31:29;;;;;;;8.90;3.20;;;;;;;2.41;96.42;100263.84;1040080;28;20817;-80
2022/04/09 01:32:00;;;;;;;15.90;4.22;;;;;;;2.36;96.73;100270.63;1047015;28;20294;-80
2022/04/09 01:32:33;;;;;;;11.13;2.67;;;;;;;2.34;96.48;100264.75;1047869;28;20302;-80
2022/04/09 01:33:04;;;;;;;7.15;1.85;;;;;;;2.38;96.92;100271.28;1047834;28;20295;-81
2022/04/09 01:33:37;;;;;;;7.28;2.15;;;;;;;2.34;96.72;100268.19;1043538;28;20307;-80
2022/04/09 01:34:13;;;;;;;12.95;2.28;;;;;;;2.34;96.71;100264.75;1038942;28;20300;-80
2022/04/09 01:34:44;;;;;;;15.73;3.25;;;;;;;2.32;96.78;100264.91;1035470;28;20315;-80
2022/04/09 01:35:16;;;;;;;9.82;2.40;;;;;;;2.30;97.05;100272.16;1030931;28;20320;-81
2022/04/09 01:35:49;;;;;;;14.32;2.50;;;;;;;2.30;97.11;100272.16;1032180;28;20798;-80
2022/04/09 01:36:22;;;;;;;7.03;1.98;;;;;;;2.29;97.13;100269.72;1036763;28;20331;-80
2022/04/09 01:36:53;;;;;;;13.40;2.47;;;;;;;2.28;96.71;100268.09;1044569;28;20792;-81
2022/04/09 01:37:25;;;;;;;11.40;2.45;;;;;;;2.29;97.12;100280.22;1042826;28;20299;-80
2022/04/09 01:37:56;;;;;;;14.05;2.25;;;;;;;2.26;97.66;100280.59;1043277;28;20306;-80
2022/04/09 01:38:28;;;;;;;9.88;2.63;;;;;;;2.24;97.40;100277.31;1039280;28;20389;-80
2022/04/09 01:38:59;;;;;;;7.68;2.13;;;;;;;2.24;97.10;100264.19;1040594;28;20303;-80
2022/04/09 01:39:32;;;;;;;10.27;2.08;;;;;;;2.26;97.12;100280.59;1039908;28;20909;-81
2022/04/09 01:40:05;;;;;;;7.88;2.10;;;;;;;2.25;97.59;100281.56;1039356;28;20303;-80
2022/04/09 01:40:37;;;;;;;9.32;2.15;;;;;;;2.23;97.14;100278.31;1039698;28;20303;-80
2022/04/09 01:41:09;;;;;;;10.55;2.78;;;;;;;2.25;97.35;100276.31;1032392;28;20302;-80
2022/04/09 01:41:46;;;;;;;9.27;2.00;;;;;;;2.23;97.04;100281.75;1036682;28;20340;-80
2022/04/09 01:42:21;;;;;;;8.95;2.40;;;;;;;2.28;96.85;100283.84;1036613;28;20309;-80
2022/04/09 01:42:54;;;;;;;12.10;3.67;;;;;;;2.28;97.61;100278.59;1035615;28;20316;-81
2022/04/09 01:43:26;;;;;;;18.92;3.22;;;;;;;2.25;97.35;100287.66;1034171;28;20330;-80
2022/04/09 01:43:58;;;;;;;10.25;2.70;;;;;;;2.28;97.34;100278.59;1032897;28;20682;-80
2022/04/09 01:44:29;;;;;;;9.48;1.83;;;;;;;2.31;97.42;100289.56;1031492;28;20336;-80
2022/04/09 01:45:01;;;;;;;8.77;3.05;;;;;;;2.24;97.20;100285.19;1037767;28;20782;-80
2022/04/09 01:45:33;;;;;;;7.75;2.25;;;;;;;2.25;97.18;100287.66;1036091;28;20304;-80
2022/04/09 01:46:08;;;;;;;14.57;2.92;;;;;;;2.23;97.45;100283.56;1035018;28;20355;-80
2022/04/09 01:46:44;;;;;;;9.02;2.20;;;;;;;2.21;97.51;100294.25;1035324;28;20305;-80
2022/04/09 01:47:16;;;;;;;12.15;3.28;;;;;;;2.20;97.55;100292.63;1037396;28;20294;-80
2022/04/09 01:47:48;;;;;;;7.22;1.95;;;;;;;2.17;97.38;100292.94;1036951;28;20798;-80
2022/04/09 01:48:20;;;;;;;9.52;2.58;;;;;;;2.25;97.78;100289.47;1036502;28;20292;-81
2022/04/09 01:48:52;;;;;;;11.43;2.72;;;;;;;2.26;97.78;100293.72;1036819;28;20347;-80
2022/04/09 01:49:24;;;;;;;11.43;2.08;;;;;;;2.26;96.91;100296.34;1032144;28;20298;-81
2022/04/09 01:49:55;;;;;;;11.60;2.72;;;;;;;2.30;97.09;100293.19;1043074;28;20295;-80
2022/04/09 01:50:27;;;;;;;14.60;3.40;;;;;;;2.30;97.33;100302.88;1043168;28;20310;-80
2022/04/09 01:50:59;;;;;;;11.88;2.83;;;;;;;2.26;97.03;100301.59;1043839;28;20284;-80
2022/04/09 01:51:30;;;;;;;13.57;2.63;;;;;;;2.27;97.58;100303.25;1045580;28;20815;-80
2022/04/09 01:52:02;;;;;;;9.48;2.50;;;;;;;2.27;97.49;100303.25;1039408;28;20701;-80
2022/04/09 01:52:34;;;;;;;11.75;2.80;;;;;;;2.22;97.53;100306.41;1035378;28;20790;-80
2022/04/09 01:53:06;;;;;;;12.38;3.00;;;;;;;2.23;97.46;100307.22;1032041;28;20305;-81
2022/04/09 01:53:38;;;;;;;10.07;2.88;;;;;;;2.21;97.24;100309.19;1035639;28;20336;-80
2022/04/09 01:54:11;;;;;;;14.27;2.42;;;;;;;2.22;97.68;100306.41;1035951;28;20706;-80
2022/04/09 01:54:42;;;;;;;7.72;2.10;;;;;;;2.17;97.78;100308.69;1031912;28;20351;-80
2022/04/09 01:55:14;;;;;;;18.38;3.03;;;;;;;2.20;97.05;100307.56;1035672;28;20344;-80
2022/04/09 01:55:47;;;;;;;12.40;3.47;;;;;;;2.23;97.70;100307.22;1038996;28;20300;-80
2022/04/09 01:56:19;;;;;;;12.82;2.47;;;;;;;2.23;97.30;100317.72;1039266;28;20338;-80
2022/04/09 01:56:51;;;;;;;11.15;2.42;;;;;;;2.23;97.41;100315.91;1039274;28;20369;-80
2022/04/09 01:57:23;;;;;;;11.77;2.50;;;;;;;2.27;97.62;100319.00;1035885;28;20864;-80
2022/04/09 01:57:56;;;;;;;12.43;2.67;;;;;;;2.32;97.80;100319.28;1035342;28;20395;-80
2022/04/09 01:58:32;;;;;;;9.57;2.00;;;;;;;2.33;98.01;100319.13;1036730;28;20296;-80
2022/04/09 01:59:03;;;;;;;7.20;2.40;;;;;;;2.40;97.85;100321.84;1036847;28;20292;-80
2022/04/09 01:59:36;;;;;;;14.75;2.78;;;;;;;2.39;98.14;100320.22;1036018;28;20305;-80
2022/04/09 02:00:11;;;;;;;7.70;2.40;;;;;;;2.45;97.75;100324.75;1037637;28;20308;-80
2022/04/09 02:00:47;;;;;;;13.80;2.83;;;;;;;2.49;97.92;100318.19;1035445;28;20304;-80
2022/04/09 02:01:19;;;;;;;14.80;2.90;;;;;;;2.52;98.26;100323.09;1035941;28;20306;-81
2022/04/09 02:01:50;;;;;;;13.07;3.03;;;;;;;2.57;98.03;100326.00;1038164;28;20300;-80
2022/04/09 02:02:23;;;;;;;6.45;2.85;;;;;;;2.58;97.99;100317.13;1041727;28;20292;-81
2022/04/09 02:02:54;;;;;;;11.60;3.47;;;;;;;2.61;98.15;100311.50;1039125;28;20304;-81
2022/04/09 02:03:26;;;;;;;18.98;3.80;;;;;;;2.67;97.80;100316.03;1042500;28;20303;-80
2022/04/09 02:03:59;;;;;;;14.32;4.25;;;;;;;2.67;98.37;100321.28;1043449;28;20303;-80
2022/04/09 02:04:31;;;;;;;11.40;3.00;;;;;;;2.69;97.78;100324.56;1040494;28;20300;-80
2022/04/09 02:05:03;;;;;;;20.30;4.10;;;;;;;2.73;97.95;100325.84;1039163;28;20304;-80
2022/04/09 02:05:35;;;;;;;18.30;3.65;;;;;;;2.72;97.95;100324.22;1039981;28;20300;-81
2022/04/09 02:06:06;;;;;;;13.73;3.40;;;;;;;2.74;97.90;100327.50;1033421;28;20443;-81
2022/04/09 02:06:38;;;;;;;15.07;4.05;;;;;;;2.76;97.77;100325.50;1035627;28;20304;-80
2022/04/09 02:07:12;;;;;;;17.27;4.00;;;;;;;2.77;97.61;100327.16;1036585;28;20654;-80
2022/04/09 02:07:45;;;;;;;18.70;3.42;;;;;;;2.79;97.61;100322.53;1033365;28;20305;-81
2022/04/09 02:08:16;;;;;;;9.82;2.25;;;;;;;2.84;97.39;100329.06;1028069;28;20301;-81
2022/04/09 02:08:48;;;;;;;10.45;3.28;;;;;;;2.77;97.31;100332.41;1034584;28;20328;-80
2022/04/09 02:09:20;;;;;;;16.83;3.95;;;;;;;2.79;97.91;100325.16;1034831;28;20308;-80
2022/04/09 02:09:51;;;;;;;15.60;4.53;;;;;;;2.84;97.67;100334.31;1038737;28;20299;-80
2022/04/09 02:10:23;;;;;;;16.52;3.75;;;;;;;2.85;97.65;100335.94;1043232;28;20840;-80
2022/04/09 02:10:55;;;;;;;15.50;3.90;;;;;;;2.86;97.63;100334.97;1044200;28;20382;-81
2022/04/09 02:11:27;;;;;;;19.33;3.67;;;;;;;2.86;97.79;100341.03;1043885;28;20310;-80
2022/04/09 02:11:59;;;;;;;23.08;3.70;;;;;;;2.87;97.56;100336.59;1043954;28;20871;-80
2022/04/09 02:12:32;;;;;;;15.48;3.97;;;;;;;2.84;97.42;100334.31;1043663;28;20366;-80
2022/04/09 02:13:10;;;;;;;12.77;2.70;;;;;;;2.83;97.56;100330.88;1043528;28;20311;-80
2022/04/09 02:13:42;;;;;;;15.85;3.42;;;;;;;2.79;97.62;100334.84;1036557;28;20329;-80
2022/04/09 02:14:14;;;;;;;14.90;2.83;;;;;;;2.78;97.04;100328.78;1035217;28;20315;-80
2022/04/09 02:14:45;;;;;;;13.07;3.65;;;;;;;2.76;97.29;100336.03;1035270;28;20303;-80
2022/04/09 02:15:17;;;;;;;18.63;3.53;;;;;;;2.78;97.24;100336.66;1036442;28;20861;-80
2022/04/09 02:15:49;;;;;;;14.73;3.42;;;;;;;2.76;97.35;100330.78;1035777;28;20328;-80
2022/04/09 02:16:31;;;;;;;18.15;3.45;;;;;;;2.67;97.18;100341.50;1035140;28;20300;-81
2022/04/09 02:17:03;;;;;;;15.18;3.55;;;;;;;2.70;97.32;100341.16;1033476;28;20305;-80
2022/04/09 02:17:36;;;;;;;16.40;4.10;;;;;;;2.70;97.47;100335.91;1037144;28;20460;-80
2022/04/09 02:18:07;;;;;;;17.20;3.47;;;;;;;2.68;97.57;100341.34;1041098;28;20296;-80
2022/04/09 02:18:39;;;;;;;13.32;3.25;;;;;;;2.65;97.30;100339.06;1038880;28;20359;-80
2022/04/09 02:19:10;;;;;;;13.68;4.30;;;;;;;2.58;97.13;100338.16;1035756;28;20297;-80
2022/04/09 02:19:42;;;;;;;21.63;4.15;;;;;;;2.61;97.04;100342.22;1043611;28;20466;-80
2022/04/09 02:20:14;;;;;;;22.10;5.15;;;;;;;2.54;97.26;100342.13;1043757;28;20307;-80
2022/04/09 02:20:46;;;;;;;14.50;3.97;;;;;;;2.54;97.05;100336.88;1047594;28;20291;-80
2022/04/09 02:21:18;;;;;;;22.92;3.80;;;;;;;2.51;97.06;100334.59;1041556;28;20296;-80
2022/04/09 02:21:49;;;;;;;16.25;3.30;;;;;;;2.51;96.97;100337.22;1043398;28;20314;-80
2022/04/09 02:22:23;;;;;;;15.77;3.90;;;;;;;2.43;97.07;100334.63;1034939;28;20806;-80
2022/04/09 02:22:55;;;;;;;16.58;4.63;;;;;;;2.41;97.64;100340.06;1035467;28;20312;-80
2022/04/09 02:23:26;;;;;;;15.05;3.75;;;;;;;2.40;96.93;100346.31;1031809;28;20456;-80
2022/04/09 02:23:58;;;;;;;14.68;3.95;;;;;;;2.38;97.01;100344.88;1035922;28;20842;-80
2022/04/09 02:24:31;;;;;;;16.15;3.88;;;;;;;2.38;97.19;100347.50;1035902;28;20852;-80
2022/04/09 02:25:04;;;;;;;17.85;3.83;;;;;;;2.33;97.12;100340.13;1036033;28;20297;-81
2022/04/09 02:25:54;;;;;;;9.93;2.47;;;;;;;2.44;97.23;100341.53;1034930;28;20387;-81
2022/04/09 02:26:26;;;;;;;16.00;3.40;;;;;;;2.43;96.87;100356.47;1034232;28;20049;-81
2022/04/09 02:26:58;;;;;;;22.70;5.93;;;;;;;2.40;97.40;100350.75;1034342;28;20384;-81
2022/04/09 02:27:30;;;;;;;17.13;4.00;;;;;;;2.44;97.14;100352.03;1038081;28;20750;-81
2022/04/09 02:28:04;;;;;;;15.88;3.35;;;;;;;2.37;97.58;100345.84;1035742;28;20317;-80
2022/04/09 02:28:35;;;;;;;14.65;3.17;;;;;;;2.35;97.50;100347.84;1035915;28;20305;-80
2022/04/09 02:29:07;;;;;;;16.27;3.78;;;;;;;2.33;97.13;100349.81;1039172;28;20311;-80
2022/04/09 02:29:38;;;;;;;12.45;3.55;;;;;;;2.36;97.36;100349.47;1039116;28;20358;-81
2022/04/09 02:30:11;;;;;;;20.98;3.63;;;;;;;2.37;97.41;100344.03;1035795;28;20395;-80
2022/04/09 02:30:48;;;;;;;18.98;4.20;;;;;;;2.37;97.13;100361.63;1039482;28;20391;-81
2022/04/09 02:31:30;;;;;;;12.73;4.10;;;;;;;2.38;97.16;100364.06;1037608;28;20694;-80
2022/04/09 02:32:02;;;;;;;18.30;4.00;;;;;;;2.33;97.28;100355.91;1035723;28;20447;-80